createdAt,value
2017-07-10T00:01:48.313Z,88.37
2017-07-10T00:04:17.654Z,83.27
2017-07-10T00:06:45.994Z,82.03
2017-07-10T00:09:15.502Z,63.40
2017-07-10T00:11:44.806Z,71.07
2017-07-10T00:14:14.593Z,82.50
2017-07-10T00:16:43.350Z,60.73
2017-07-10T00:19:12.072Z,65.00
2017-07-10T00:21:41.824Z,67.97
2017-07-10T00:24:10.061Z,92.07
2017-07-10T00:26:38.712Z,77.40
2017-07-10T00:29:07.044Z,99.47
2017-07-10T00:31:35.226Z,68.60
2017-07-10T00:34:03.822Z,76.77
2017-07-10T00:36:32.817Z,85.90
2017-07-10T00:39:00.994Z,89.63
2017-07-10T00:41:29.706Z,84.20
2017-07-10T00:43:58.556Z,81.10
2017-07-10T00:46:27.853Z,85.90
2017-07-10T00:48:57.498Z,92.23
2017-07-10T00:51:26.141Z,76.60
2017-07-10T00:53:54.366Z,88.10
2017-07-10T00:56:23.248Z,88.77
2017-07-10T00:58:52.342Z,83.70
2017-07-10T01:01:21.225Z,68.00
2017-07-10T01:03:49.983Z,101.30
2017-07-10T01:06:19.509Z,104.43
2017-07-10T01:08:48.909Z,110.30
2017-07-10T01:11:17.127Z,89.27
2017-07-10T01:13:46.058Z,81.07
2017-07-10T01:16:15.001Z,92.63
2017-07-10T01:18:43.558Z,95.37
2017-07-10T01:21:12.350Z,91.07
2017-07-10T01:23:41.240Z,94.67
2017-07-10T01:26:10.536Z,82.97
2017-07-10T01:28:38.889Z,94.40
2017-07-10T01:31:07.736Z,81.90
2017-07-10T01:33:35.942Z,78.13
2017-07-10T01:36:04.777Z,87.27
2017-07-10T01:38:34.149Z,86.53
2017-07-10T01:41:02.768Z,94.13
2017-07-10T01:43:32.222Z,81.67
2017-07-10T01:46:00.860Z,104.23
2017-07-10T01:48:30.218Z,97.30
2017-07-10T01:50:58.610Z,84.10
2017-07-10T01:53:26.793Z,90.27
2017-07-10T01:55:55.402Z,84.70
2017-07-10T01:58:24.891Z,86.00
2017-07-10T02:00:54.293Z,102.70
2017-07-10T02:03:22.457Z,91.70
2017-07-10T02:05:51.387Z,83.67
2017-07-10T02:08:19.605Z,91.67
2017-07-10T02:10:48.218Z,111.63
2017-07-10T02:13:17.016Z,97.57
2017-07-10T02:15:46.569Z,105.87
2017-07-10T02:18:14.829Z,70.37
2017-07-10T02:20:43.713Z,84.90
2017-07-10T02:23:12.428Z,83.20
2017-07-10T02:25:41.334Z,76.50
2017-07-10T02:28:10.418Z,75.90
2017-07-10T02:30:38.968Z,69.87
2017-07-10T02:33:07.145Z,71.73
2017-07-10T02:35:36.799Z,83.70
2017-07-10T02:38:04.969Z,75.97
2017-07-10T02:40:33.848Z,87.50
2017-07-10T02:43:02.538Z,83.73
2017-07-10T02:45:31.301Z,82.40
2017-07-10T02:47:59.453Z,77.63
2017-07-10T02:50:28.296Z,87.23
2017-07-10T02:52:56.891Z,80.50
2017-07-10T02:55:25.638Z,105.27
2017-07-10T02:57:55.136Z,87.97
2017-07-10T03:00:24.783Z,99.57
2017-07-10T03:02:53.777Z,95.07
2017-07-10T03:05:22.612Z,82.20
2017-07-10T03:07:51.406Z,88.53
2017-07-10T03:10:20.017Z,100.17
2017-07-10T03:12:50.337Z,82.27
2017-07-10T03:15:19.916Z,102.37
2017-07-10T03:17:48.529Z,79.73
2017-07-10T03:20:16.865Z,108.13
2017-07-10T03:22:45.987Z,118.20
2017-07-10T03:25:14.830Z,86.47
2017-07-10T03:27:44.702Z,116.90
2017-07-10T03:30:14.166Z,105.40
2017-07-10T03:32:42.706Z,85.83
2017-07-10T03:35:12.201Z,95.67
2017-07-10T03:37:41.837Z,96.60
2017-07-10T03:40:10.829Z,106.20
2017-07-10T03:42:39.145Z,89.93
2017-07-10T03:45:07.981Z,69.90
2017-07-10T03:47:37.629Z,94.57
2017-07-10T03:50:06.769Z,85.93
2017-07-10T03:52:35.233Z,78.30
2017-07-10T03:55:03.970Z,99.27
2017-07-10T03:57:32.858Z,69.37
2017-07-10T04:00:01.650Z,99.03
2017-07-10T04:02:30.509Z,86.60
2017-07-10T04:04:59.552Z,75.10
2017-07-10T04:07:28.449Z,88.17
2017-07-10T04:09:57.498Z,84.23
2017-07-10T04:12:28.329Z,90.77
2017-07-10T04:14:57.129Z,96.13
2017-07-10T04:17:27.709Z,90.00
2017-07-10T04:19:57.098Z,93.93
2017-07-10T04:22:28.342Z,86.40
2017-07-10T04:25:00.689Z,82.97
2017-07-10T04:27:29.758Z,86.07
2017-07-10T04:29:58.813Z,87.60
2017-07-10T04:32:28.669Z,99.10
2017-07-10T04:35:00.117Z,84.33
2017-07-10T04:37:29.053Z,90.63
2017-07-10T04:39:59.784Z,104.33
2017-07-10T04:42:30.865Z,80.97
2017-07-10T04:45:00.045Z,87.93
2017-07-10T04:47:29.586Z,91.07
2017-07-10T04:49:59.365Z,82.90
2017-07-10T04:52:28.136Z,100.90
2017-07-10T04:54:57.366Z,86.47
2017-07-10T04:57:26.513Z,97.53
2017-07-10T04:59:56.619Z,82.33
2017-07-10T05:15:25.427Z,84.70
2017-07-10T05:17:54.978Z,73.60
2017-07-10T05:20:23.642Z,87.05
2017-07-10T05:22:52.557Z,75.60
2017-07-10T05:25:21.227Z,73.90
2017-07-10T05:27:50.029Z,71.53
2017-07-10T05:30:19.116Z,80.10
2017-07-10T05:32:48.009Z,97.12
2017-07-10T05:35:16.965Z,89.13
2017-07-10T05:37:45.997Z,89.77
2017-07-10T05:40:14.894Z,118.45
2017-07-10T05:42:43.693Z,104.10
2017-07-10T05:45:12.416Z,146.73
2017-07-10T05:47:41.044Z,129.38
2017-07-10T05:50:09.830Z,158.68
2017-07-10T05:52:38.638Z,117.40
2017-07-10T05:55:06.797Z,122.78
2017-07-10T05:57:35.586Z,146.90
2017-07-10T06:00:04.076Z,142.55
2017-07-10T06:02:33.037Z,155.65
2017-07-10T06:05:01.794Z,153.85
2017-07-10T06:07:30.465Z,127.50
2017-07-10T06:09:59.169Z,125.75
2017-07-10T06:12:27.817Z,111.18
2017-07-10T06:14:56.622Z,98.25
2017-07-10T06:17:25.814Z,98.60
2017-07-10T06:19:54.671Z,117.50
2017-07-10T06:22:23.552Z,83.47
2017-07-10T06:24:52.164Z,87.25
2017-07-10T06:27:21.893Z,75.97
2017-07-10T06:29:50.201Z,75.97
2017-07-10T06:32:18.845Z,64.43
2017-07-10T06:34:47.561Z,58.35
2017-07-10T06:37:16.653Z,72.85
2017-07-10T06:39:45.393Z,62.78
2017-07-10T06:42:14.240Z,75.87
2017-07-10T06:44:43.277Z,63.85
2017-07-10T06:47:12.121Z,58.80
2017-07-10T06:49:40.347Z,52.30
2017-07-10T06:52:09.266Z,61.58
2017-07-10T06:54:38.030Z,59.13
2017-07-10T06:57:06.254Z,58.63
2017-07-10T06:59:35.168Z,49.70
2017-07-10T07:02:03.917Z,42.10
2017-07-10T07:04:32.733Z,56.85
2017-07-10T07:07:01.714Z,71.90
2017-07-10T07:09:30.709Z,51.60
2017-07-10T07:11:59.611Z,56.13
2017-07-10T07:14:27.957Z,63.22
2017-07-10T07:16:57.654Z,62.95
2017-07-10T07:19:27.285Z,69.07
2017-07-10T07:21:56.277Z,73.05
2017-07-10T07:24:24.982Z,82.20
2017-07-10T07:26:53.872Z,78.15
2017-07-10T07:29:22.479Z,63.35
2017-07-10T07:31:51.129Z,73.47
2017-07-10T07:34:19.713Z,69.05
2017-07-10T07:36:48.618Z,63.50
2017-07-10T07:39:17.586Z,61.88
2017-07-10T07:41:47.205Z,75.90
2017-07-10T07:44:16.642Z,57.50
2017-07-10T07:46:45.402Z,58.53
2017-07-10T07:49:14.777Z,59.90
2017-07-10T07:51:43.590Z,52.22
2017-07-10T07:54:13.001Z,76.90
2017-07-10T07:56:41.582Z,79.80
2017-07-10T07:59:10.937Z,57.95
2017-07-10T08:01:39.579Z,60.55
2017-07-10T08:04:08.338Z,63.67
2017-07-10T08:06:38.866Z,53.42
2017-07-10T08:09:07.708Z,49.42
2017-07-10T08:11:36.437Z,54.33
2017-07-10T08:14:05.106Z,60.10
2017-07-10T08:16:33.845Z,65.15
2017-07-10T08:19:03.193Z,57.90
2017-07-10T08:21:32.189Z,64.50
2017-07-10T08:24:00.934Z,59.27
2017-07-10T08:26:29.101Z,52.05
2017-07-10T08:28:57.436Z,60.40
2017-07-10T08:31:26.085Z,54.83
2017-07-10T08:33:54.994Z,47.90
2017-07-10T08:36:23.298Z,53.63
2017-07-10T08:38:51.929Z,56.80
2017-07-10T08:41:21.373Z,62.58
2017-07-10T08:43:50.222Z,58.22
2017-07-10T08:46:18.485Z,60.47
2017-07-10T08:48:47.086Z,65.13
2017-07-10T08:51:16.774Z,53.40
2017-07-10T08:53:45.346Z,60.47
2017-07-10T08:56:14.079Z,68.77
2017-07-10T08:58:42.974Z,71.85
2017-07-10T09:01:11.672Z,76.60
2017-07-10T09:03:40.457Z,73.43
2017-07-10T09:06:08.749Z,69.40
2017-07-10T09:08:36.921Z,67.45
2017-07-10T09:11:05.610Z,56.87
2017-07-10T09:13:34.415Z,67.53
2017-07-10T09:16:03.167Z,60.60
2017-07-10T09:18:32.066Z,71.30
2017-07-10T09:21:01.062Z,76.07
2017-07-10T09:23:30.057Z,66.17
2017-07-10T09:25:58.846Z,81.20
2017-07-10T09:28:27.941Z,61.23
2017-07-10T09:30:56.798Z,91.53
2017-07-10T09:33:25.552Z,80.20
2017-07-10T09:35:53.864Z,65.10
2017-07-10T09:38:22.482Z,68.30
2017-07-10T09:40:51.377Z,65.97
2017-07-10T09:43:20.473Z,74.63
2017-07-10T09:45:49.261Z,75.93
2017-07-10T09:48:18.118Z,64.73
2017-07-10T09:50:46.928Z,62.87
2017-07-10T09:53:16.354Z,61.17
2017-07-10T09:55:45.154Z,61.50
2017-07-10T09:58:13.921Z,51.50
2017-07-10T10:00:42.758Z,77.63
2017-07-10T10:03:11.493Z,76.00
2017-07-10T10:05:39.830Z,70.33
2017-07-10T10:08:08.529Z,60.73
2017-07-10T10:10:37.288Z,60.13
2017-07-10T10:13:06.186Z,66.17
2017-07-10T10:15:34.359Z,59.30
2017-07-10T10:18:02.625Z,56.90
2017-07-10T10:20:31.585Z,56.90
2017-07-10T10:23:00.932Z,63.97
2017-07-10T10:25:29.891Z,62.80
2017-07-10T10:27:58.304Z,63.00
2017-07-10T10:30:27.082Z,60.13
2017-07-10T10:32:56.130Z,58.60
2017-07-10T10:35:25.759Z,67.33
2017-07-10T10:37:54.571Z,73.10
2017-07-10T10:40:23.520Z,73.83
2017-07-10T10:42:52.557Z,66.17
2017-07-10T10:45:21.409Z,64.50
2017-07-10T10:47:49.910Z,73.07
2017-07-10T10:50:18.267Z,68.43
2017-07-10T10:52:47.057Z,52.13
2017-07-10T10:55:15.641Z,60.73
2017-07-10T10:57:43.898Z,63.13
2017-07-10T11:00:12.761Z,68.03
2017-07-10T11:02:41.321Z,60.67
2017-07-10T11:05:10.152Z,54.73
2017-07-10T11:07:39.011Z,59.60
2017-07-10T11:10:07.809Z,60.53
2017-07-10T11:12:36.790Z,73.90
2017-07-10T11:15:05.703Z,55.83
2017-07-10T11:17:33.930Z,64.93
2017-07-10T11:20:02.321Z,68.30
2017-07-10T11:22:31.577Z,66.30
2017-07-10T11:25:00.337Z,68.37
2017-07-10T11:27:29.424Z,66.77
2017-07-10T11:29:58.187Z,55.43
2017-07-10T11:32:27.609Z,66.93
2017-07-10T11:34:57.145Z,69.53
2017-07-10T11:37:25.847Z,70.30
2017-07-10T11:39:54.614Z,72.47
2017-07-10T11:42:22.926Z,64.60
2017-07-10T11:44:51.602Z,60.13
2017-07-10T11:47:20.454Z,79.97
2017-07-10T11:49:49.446Z,66.00
2017-07-10T11:52:19.025Z,66.20
2017-07-10T11:54:47.833Z,65.50
2017-07-10T11:57:17.638Z,66.30
2017-07-10T11:59:46.141Z,65.33
2017-07-10T12:02:15.829Z,60.30
2017-07-10T12:04:44.871Z,64.60
2017-07-10T12:07:13.666Z,72.70
2017-07-10T12:09:42.401Z,75.37
2017-07-10T12:12:11.093Z,70.73
2017-07-10T12:14:39.910Z,58.07
2017-07-10T12:17:08.710Z,67.77
2017-07-10T12:19:37.561Z,57.90
2017-07-10T12:22:05.741Z,59.43
2017-07-10T12:24:34.470Z,51.77
2017-07-10T12:27:03.465Z,76.90
2017-07-10T12:29:32.318Z,67.17
2017-07-10T12:32:01.306Z,66.13
2017-07-10T12:34:30.401Z,65.83
2017-07-10T12:36:59.142Z,62.80
2017-07-10T12:39:27.776Z,67.50
2017-07-10T12:41:56.574Z,68.70
2017-07-10T12:44:24.798Z,55.57
2017-07-10T12:46:53.706Z,70.47
2017-07-10T12:49:22.482Z,65.80
2017-07-10T12:51:51.079Z,68.20
2017-07-10T12:54:19.737Z,55.17
2017-07-10T12:56:48.690Z,76.93
2017-07-10T12:59:16.920Z,70.77
2017-07-10T13:01:45.686Z,66.93
2017-07-10T13:04:14.575Z,74.17
2017-07-10T13:06:43.369Z,63.67
2017-07-10T13:09:12.171Z,72.20
2017-07-10T13:11:41.121Z,77.90
2017-07-10T13:14:09.965Z,68.23
2017-07-10T13:16:38.957Z,65.70
2017-07-10T13:19:08.002Z,71.10
2017-07-10T13:21:36.780Z,67.33
2017-07-10T13:24:05.401Z,63.63
2017-07-10T13:26:35.197Z,67.27
2017-07-10T13:29:03.769Z,52.63
2017-07-10T13:31:32.703Z,68.90
2017-07-10T13:34:01.495Z,58.87
2017-07-10T13:36:30.169Z,57.93
2017-07-10T13:38:59.037Z,74.43
2017-07-10T13:41:27.982Z,61.17
2017-07-10T13:43:57.027Z,61.13
2017-07-10T13:46:25.970Z,55.43
2017-07-10T13:48:54.738Z,67.60
2017-07-10T13:51:23.426Z,67.37
2017-07-10T13:53:52.106Z,72.50
2017-07-10T13:56:21.592Z,60.90
2017-07-10T13:58:50.197Z,67.23
2017-07-10T14:01:19.642Z,68.70
2017-07-10T14:03:48.498Z,62.33
2017-07-10T14:06:17.198Z,74.33
2017-07-10T14:08:46.053Z,51.50
2017-07-10T14:11:14.391Z,61.03
2017-07-10T14:13:43.150Z,67.53
2017-07-10T14:16:11.929Z,78.10
2017-07-10T14:18:41.418Z,62.90
2017-07-10T14:21:10.025Z,79.27
2017-07-10T14:23:38.202Z,69.63
2017-07-10T14:26:06.460Z,66.30
2017-07-10T14:28:34.690Z,71.00
2017-07-10T14:31:03.377Z,63.57
2017-07-10T14:33:31.885Z,71.67
2017-07-10T14:36:00.791Z,71.17
2017-07-10T14:38:28.968Z,72.87
2017-07-10T14:40:57.778Z,67.73
2017-07-10T14:43:27.089Z,72.70
2017-07-10T14:45:55.774Z,60.20
2017-07-10T14:48:24.771Z,65.00
2017-07-10T14:50:53.569Z,71.10
2017-07-10T14:53:22.370Z,67.80
2017-07-10T14:55:51.518Z,82.83
2017-07-10T14:58:20.409Z,68.73
2017-07-10T15:00:49.354Z,69.67
2017-07-10T15:03:17.710Z,60.97
2017-07-10T15:05:46.289Z,63.43
2017-07-10T15:08:15.642Z,61.33
2017-07-10T15:10:44.433Z,66.13
2017-07-10T15:13:13.289Z,60.77
2017-07-10T15:15:41.990Z,64.07
2017-07-10T15:18:10.853Z,60.03
2017-07-10T15:20:40.378Z,68.03
2017-07-10T15:23:09.328Z,67.03
2017-07-10T15:25:38.406Z,62.43
2017-07-10T15:28:07.270Z,66.80
2017-07-10T15:30:36.313Z,65.83
2017-07-10T15:33:05.411Z,72.23
2017-07-10T15:35:33.730Z,51.43
2017-07-10T15:38:02.442Z,69.77
2017-07-10T15:40:31.398Z,63.47
2017-07-10T15:43:00.181Z,60.37
2017-07-10T15:45:29.634Z,58.67
2017-07-10T15:47:58.488Z,61.83
2017-07-10T15:50:26.654Z,73.60
2017-07-10T15:52:56.277Z,59.07
2017-07-10T15:55:25.374Z,61.87
2017-07-10T15:57:54.178Z,62.47
2017-07-10T16:00:22.985Z,57.17
2017-07-10T16:02:51.657Z,67.27
2017-07-10T16:05:20.314Z,68.53
2017-07-10T16:07:49.613Z,62.23
2017-07-10T16:10:19.341Z,77.63
2017-07-10T16:12:48.300Z,65.20
2017-07-10T16:15:16.806Z,74.27
2017-07-10T16:17:46.483Z,74.47
2017-07-10T16:20:14.661Z,60.47
2017-07-10T16:22:43.288Z,67.80
2017-07-10T16:25:12.278Z,70.60
2017-07-10T16:27:40.795Z,69.17
2017-07-10T16:30:09.482Z,65.70
2017-07-10T16:32:38.334Z,80.93
2017-07-10T16:35:07.733Z,80.43
2017-07-10T16:50:26.805Z,67.93
2017-07-10T16:52:55.662Z,62.43
2017-07-10T16:55:25.086Z,74.40
2017-07-10T16:57:54.446Z,53.67
2017-07-10T17:00:23.175Z,69.33
2017-07-10T17:02:51.349Z,60.77
2017-07-10T17:05:21.170Z,62.83
2017-07-10T17:07:49.854Z,64.70
2017-07-10T17:10:18.026Z,71.30
2017-07-10T17:12:47.845Z,70.47
2017-07-10T17:15:16.605Z,58.07
2017-07-10T17:17:44.857Z,76.03
2017-07-10T17:20:13.746Z,71.20
2017-07-10T17:22:42.297Z,66.03
2017-07-10T17:25:11.102Z,63.80
2017-07-10T17:27:40.146Z,73.03
2017-07-10T17:30:08.421Z,77.87
2017-07-10T17:32:36.595Z,57.80
2017-07-10T17:35:04.986Z,59.23
2017-07-10T17:37:34.688Z,69.73
2017-07-10T17:40:03.529Z,78.93
2017-07-10T17:42:32.681Z,68.07
2017-07-10T17:45:01.253Z,67.03
2017-07-10T17:47:29.918Z,73.27
2017-07-10T17:49:58.761Z,61.97
2017-07-10T17:52:28.243Z,71.43
2017-07-10T17:54:56.902Z,67.30
2017-07-10T17:57:25.760Z,73.67
2017-07-10T17:59:54.514Z,72.80
2017-07-10T18:02:23.405Z,53.53
2017-07-10T18:04:51.994Z,61.67
2017-07-10T18:07:20.117Z,63.33
2017-07-10T18:09:49.062Z,64.87
2017-07-10T18:12:17.362Z,60.60
2017-07-10T18:14:46.997Z,54.73
2017-07-10T18:17:16.008Z,62.37
2017-07-10T18:19:44.853Z,83.17
2017-07-10T18:22:14.377Z,63.20
2017-07-10T18:24:43.281Z,66.33
2017-07-10T18:27:11.925Z,59.43
2017-07-10T18:29:41.420Z,62.10
2017-07-10T18:32:09.682Z,59.87
2017-07-10T18:34:38.616Z,62.07
2017-07-10T18:37:07.926Z,59.10
2017-07-10T18:39:36.649Z,63.73
2017-07-10T18:42:05.496Z,90.93
2017-07-10T18:44:34.809Z,69.13
2017-07-10T18:47:03.489Z,73.67
2017-07-10T18:49:32.385Z,93.60
2017-07-10T18:52:01.350Z,60.80
2017-07-10T18:54:30.136Z,59.10
2017-07-10T18:56:59.087Z,70.20
2017-07-10T18:59:27.583Z,58.70
2017-07-10T19:01:56.245Z,71.73
2017-07-10T19:04:25.250Z,83.13
2017-07-10T19:06:54.142Z,69.57
2017-07-10T19:09:22.702Z,76.83
2017-07-10T19:11:51.535Z,79.33
2017-07-10T19:14:19.707Z,83.13
2017-07-10T19:16:48.250Z,78.23
2017-07-10T19:19:17.082Z,74.87
2017-07-10T19:21:45.629Z,86.13
2017-07-10T19:24:14.967Z,69.70
2017-07-10T19:26:43.919Z,64.73
2017-07-10T19:29:13.218Z,69.47
2017-07-10T19:31:41.806Z,75.53
2017-07-10T19:34:10.205Z,71.17
2017-07-10T19:36:38.765Z,66.03
2017-07-10T19:39:08.301Z,69.20
2017-07-10T19:41:36.993Z,71.30
2017-07-10T19:44:05.592Z,68.97
2017-07-10T19:46:33.814Z,75.70
2017-07-10T19:49:03.437Z,61.73
2017-07-10T19:51:32.734Z,67.90
2017-07-10T19:54:00.946Z,81.00
2017-07-10T19:56:30.125Z,83.00
2017-07-10T19:58:58.979Z,79.83
2017-07-10T20:01:27.821Z,84.00
2017-07-10T20:03:56.505Z,78.93
2017-07-10T20:06:25.206Z,96.00
2017-07-10T20:08:53.854Z,73.17
2017-07-10T20:11:23.389Z,89.57
2017-07-10T20:13:52.054Z,88.53
2017-07-10T20:16:20.266Z,73.27
2017-07-10T20:18:49.160Z,82.30
2017-07-10T20:21:17.799Z,87.50
2017-07-10T20:23:47.342Z,89.50
2017-07-10T20:26:16.329Z,103.60
2017-07-10T20:28:45.139Z,97.70
2017-07-10T20:31:14.133Z,85.17
2017-07-10T20:33:43.315Z,81.20
2017-07-10T20:36:11.869Z,90.87
2017-07-10T20:38:41.406Z,73.80
2017-07-10T20:41:10.697Z,66.80
2017-07-10T20:43:39.395Z,101.13
2017-07-10T20:46:08.025Z,76.70
2017-07-10T20:48:36.325Z,82.17
2017-07-10T20:51:05.611Z,82.40
2017-07-10T20:53:34.242Z,91.40
2017-07-10T20:56:03.130Z,97.03
2017-07-10T20:58:31.781Z,98.00
2017-07-10T21:01:01.181Z,75.23
2017-07-10T21:03:30.274Z,83.03
2017-07-10T21:05:59.219Z,76.57
2017-07-10T21:08:28.114Z,80.77
2017-07-10T21:10:57.010Z,74.20
2017-07-10T21:13:25.657Z,77.93
2017-07-10T21:15:55.245Z,85.03
2017-07-10T21:18:23.886Z,108.33
2017-07-10T21:20:52.483Z,83.50
2017-07-10T21:23:20.746Z,73.87
2017-07-10T21:25:49.742Z,75.00
2017-07-10T21:28:18.547Z,77.37
2017-07-10T21:30:47.190Z,76.47
2017-07-10T21:33:16.978Z,87.53
2017-07-10T21:35:45.827Z,94.87
2017-07-10T21:38:14.372Z,63.23
2017-07-10T21:40:44.204Z,91.43
2017-07-10T21:43:13.059Z,76.97
2017-07-10T21:45:41.903Z,88.47
2017-07-10T21:48:10.945Z,84.77
2017-07-10T21:50:39.889Z,70.07
2017-07-10T21:53:08.455Z,82.23
2017-07-10T21:55:37.325Z,72.97
2017-07-10T21:58:05.554Z,66.53
2017-07-10T22:00:34.439Z,88.73
2017-07-10T22:03:03.305Z,74.10
2017-07-10T22:05:31.523Z,73.00
2017-07-10T22:08:00.280Z,88.10
2017-07-10T22:10:29.274Z,86.17
2017-07-10T22:12:58.125Z,89.53
2017-07-10T22:15:26.805Z,74.50
2017-07-10T22:17:55.622Z,88.00
2017-07-10T22:20:25.165Z,102.10
2017-07-10T22:22:53.719Z,94.80
2017-07-10T22:25:23.406Z,77.07
2017-07-10T22:27:52.247Z,92.53
2017-07-10T22:30:21.158Z,67.83
2017-07-10T22:32:49.931Z,73.90
2017-07-10T22:35:18.687Z,73.97
2017-07-10T22:37:48.383Z,84.37
2017-07-10T22:40:17.022Z,86.07
2017-07-10T22:42:45.778Z,76.10
2017-07-10T22:45:14.465Z,65.47
2017-07-10T22:47:43.258Z,85.60
2017-07-10T22:50:11.918Z,72.67
2017-07-10T22:52:40.861Z,69.73
2017-07-10T22:55:09.546Z,68.50
2017-07-10T22:57:37.729Z,85.03
2017-07-10T23:00:06.462Z,75.57
2017-07-10T23:02:35.701Z,72.00
2017-07-10T23:05:04.653Z,73.50
2017-07-10T23:07:32.837Z,72.47
2017-07-10T23:10:01.641Z,82.40
2017-07-10T23:12:30.941Z,88.17
2017-07-10T23:15:00.481Z,69.77
2017-07-10T23:17:29.297Z,84.07
2017-07-10T23:19:57.878Z,73.90
2017-07-10T23:22:30.655Z,78.87
2017-07-10T23:24:59.199Z,84.63
2017-07-10T23:27:27.389Z,77.20
2017-07-10T23:29:56.545Z,69.77
2017-07-10T23:32:25.386Z,76.33
2017-07-10T23:34:53.945Z,93.23
2017-07-10T23:37:23.734Z,78.13
2017-07-10T23:39:52.474Z,68.60
2017-07-10T23:42:21.101Z,76.77
2017-07-10T23:44:49.906Z,73.43
2017-07-10T23:47:18.110Z,75.43
2017-07-10T23:49:47.018Z,72.93
2017-07-10T23:52:16.123Z,84.80
2017-07-10T23:54:45.005Z,86.93
2017-07-10T23:57:14.009Z,88.87
2017-07-10T23:59:43.045Z,84.07
